Time;durP1;ratioP1;P1;durP2;ratioP2;P2;SDS_P1;SDS_P2;PMS_P1;PMS_P2;Temp;Humidity;BMP_temperature;BMP_pressure;BME280_temperature;BME280_humidity;BME280_pressure;Samples;Min_cycle;Max_cycle;Signal;HPM_P1;HPM_P2
2022/11/07 00:02:52;;;;;;;70.07;25.67;;;;;;;;;;6342596;28;20405;-60
2022/11/07 00:05:53;;;;;;;66.35;24.60;;;;;;;;;;6343509;28;20047;-61
2022/11/07 00:08:54;;;;;;;87.80;37.15;;;;;;;;;;6341575;28;20462;-61
2022/11/07 00:11:55;;;;;;;71.30;27.52;;;;;;;;;;6343808;28;20051;-61
2022/11/07 00:14:56;;;;;;;72.75;27.55;;;;;;;;;;6343940;28;20134;-61
2022/11/07 00:17:57;;;;;;;71.30;26.58;;;;;;;;;;6341101;28;20402;-62
2022/11/07 00:21:05;;;;;;;75.25;25.80;;;;;;;;;;6344231;28;20043;-60
2022/11/07 00:24:07;;;;;;;80.13;27.00;;;;;;;;;;6342759;28;20079;-61
2022/11/07 00:27:08;;;;;;;80.50;27.05;;;;;;;;;;6343001;28;20050;-61
2022/11/07 00:30:09;;;;;;;87.93;28.58;;;;;;;;;;6342259;28;20127;-61
2022/11/07 00:33:09;;;;;;;86.20;33.17;;;;;;;;;;6343140;28;20051;-61
2022/11/07 00:36:22;;;;;;;85.63;31.38;;;;;;;;;;6341842;28;20051;-61
2022/11/07 00:39:22;;;;;;;107.55;34.78;;;;;;;;;;6340554;28;20053;-61
2022/11/07 00:42:23;;;;;;;87.57;30.98;;;;;;;;;;6342788;28;20052;-61
2022/11/07 00:45:23;;;;;;;84.07;30.27;;;;;;;;;;6341921;28;20405;-62
2022/11/07 00:48:24;;;;;;;90.78;29.38;;;;;;;;;;6340579;28;20050;-61
2022/11/07 00:51:27;;;;;;;85.68;29.70;;;;;;;;;;6339542;28;20059;-61
2022/11/07 00:54:27;;;;;;;92.65;33.38;;;;;;;;;;6341693;28;20050;-61
2022/11/07 00:57:29;;;;;;;87.38;29.67;;;;;;;;;;6341715;28;20409;-62
2022/11/07 01:00:29;;;;;;;89.13;34.08;;;;;;;;;;6341905;28;20047;-61
2022/11/07 01:06:49;;;;;;;92.60;34.25;;;;;;;;;;6342134;28;20040;-61
2022/11/07 01:09:50;;;;;;;86.78;31.92;;;;;;;;;;6340995;28;20044;-61
2022/11/07 01:12:50;;;;;;;83.57;31.10;;;;;;;;;;6342944;28;20036;-61
2022/11/07 01:15:51;;;;;;;89.03;30.08;;;;;;;;;;6342088;28;20046;-61
2022/11/07 01:18:52;;;;;;;87.18;30.63;;;;;;;;;;6340570;28;20044;-61
2022/11/07 01:21:53;;;;;;;78.45;28.50;;;;;;;;;;6341407;28;20040;-60
2022/11/07 01:24:54;;;;;;;79.75;30.58;;;;;;;;;;6341976;28;20051;-61
2022/11/07 01:27:55;;;;;;;71.53;25.85;;;;;;;;;;6341814;28;20039;-61
2022/11/07 01:30:55;;;;;;;76.13;26.00;;;;;;;;;;6340450;28;20529;-61
2022/11/07 01:33:57;;;;;;;78.97;26.08;;;;;;;;;;6342361;28;20069;-61
2022/11/07 01:36:58;;;;;;;81.85;28.00;;;;;;;;;;6342674;28;20046;-61
2022/11/07 01:39:58;;;;;;;77.47;26.40;;;;;;;;;;6340626;28;20494;-61
2022/11/07 01:42:59;;;;;;;96.15;29.23;;;;;;;;;;6342161;28;20052;-61
2022/11/07 01:46:00;;;;;;;87.20;29.10;;;;;;;;;;6341865;28;20067;-61
2022/11/07 01:49:03;;;;;;;106.55;33.15;;;;;;;;;;6340386;28;20067;-61
2022/11/07 01:52:11;;;;;;;97.78;32.40;;;;;;;;;;6341617;28;20494;-60
2022/11/07 01:55:22;;;;;;;94.65;33.78;;;;;;;;;;6344568;28;20204;-61
2022/11/07 01:58:23;;;;;;;86.80;29.33;;;;;;;;;;6347073;28;20040;-61
2022/11/07 02:01:23;;;;;;;80.65;28.35;;;;;;;;;;6345430;28;20406;-60
2022/11/07 02:04:26;;;;;;;73.18;24.92;;;;;;;;;;6347240;28;20451;-61
2022/11/07 02:07:27;;;;;;;91.55;27.88;;;;;;;;;;6346860;28;20478;-61
2022/11/07 02:10:28;;;;;;;80.97;27.13;;;;;;;;;;6345542;28;20391;-61
2022/11/07 02:13:30;;;;;;;80.68;28.55;;;;;;;;;;6346818;28;20051;-61
2022/11/07 02:16:33;;;;;;;77.85;26.73;;;;;;;;;;6346250;28;20044;-61
2022/11/07 02:19:37;;;;;;;76.82;28.13;;;;;;;;;;6345662;28;20058;-60
2022/11/07 02:22:52;;;;;;;83.45;28.25;;;;;;;;;;6345224;28;20410;-60
2022/11/07 02:25:53;;;;;;;84.22;27.85;;;;;;;;;;6345854;28;20050;-60
2022/11/07 02:28:56;;;;;;;84.88;29.25;;;;;;;;;;6346786;28;20100;-61
2022/11/07 02:32:00;;;;;;;;;;;;;;;;;;6345458;28;20067;-60
2022/11/07 02:35:06;;;;;;;81.88;27.20;;;;;;;;;;6346562;28;19920;-61
2022/11/07 02:38:15;;;;;;;77.82;27.15;;;;;;;;;;6346415;28;20067;-61
2022/11/07 02:41:18;;;;;;;82.57;27.77;;;;;;;;;;6345249;28;20044;-62
2022/11/07 02:44:19;;;;;;;89.43;28.58;;;;;;;;;;6345095;28;20724;-60
2022/11/07 02:47:20;;;;;;;81.35;30.35;;;;;;;;;;6345349;28;20048;-60
2022/11/07 02:50:21;;;;;;;86.53;30.90;;;;;;;;;;6345082;28;20058;-61
2022/11/07 02:53:22;;;;;;;81.60;29.75;;;;;;;;;;6343986;28;20040;-60
2022/11/07 02:56:23;;;;;;;86.72;30.60;;;;;;;;;;6345746;28;20035;-60
2022/11/07 02:59:24;;;;;;;82.60;29.17;;;;;;;;;;6345708;28;20046;-61
2022/11/07 03:02:25;;;;;;;83.10;28.13;;;;;;;;;;6343625;28;20043;-60
2022/11/07 03:05:25;;;;;;;84.95;27.77;;;;;;;;;;6344699;28;20051;-61
2022/11/07 03:08:27;;;;;;;83.03;29.10;;;;;;;;;;6344773;28;20050;-61
2022/11/07 03:11:27;;;;;;;80.25;28.80;;;;;;;;;;6344311;28;20047;-60
2022/11/07 03:14:28;;;;;;;82.38;27.25;;;;;;;;;;6344897;28;20501;-60
2022/11/07 03:17:29;;;;;;;86.82;28.13;;;;;;;;;;6345173;28;20343;-61
2022/11/07 03:20:29;;;;;;;78.00;27.13;;;;;;;;;;6345111;28;20500;-61
2022/11/07 03:23:30;;;;;;;76.65;27.80;;;;;;;;;;6343598;28;20063;-60
2022/11/07 03:26:30;;;;;;;83.07;27.75;;;;;;;;;;6344313;28;20052;-61
2022/11/07 03:29:31;;;;;;;76.13;26.05;;;;;;;;;;6344434;28;20561;-60
2022/11/07 03:32:33;;;;;;;82.05;27.92;;;;;;;;;;6342559;28;20366;-60
2022/11/07 03:35:34;;;;;;;86.38;27.25;;;;;;;;;;6343984;28;20731;-61
2022/11/07 03:38:34;;;;;;;78.50;28.40;;;;;;;;;;6343946;28;20050;-61
2022/11/07 03:41:35;;;;;;;77.85;25.80;;;;;;;;;;6342634;28;20950;-61
2022/11/07 03:44:35;;;;;;;71.43;24.75;;;;;;;;;;6344198;28;20044;-60
2022/11/07 03:47:38;;;;;;;73.10;25.25;;;;;;;;;;6344767;28;20054;-60
2022/11/07 03:50:38;;;;;;;76.03;27.75;;;;;;;;;;6343053;28;20055;-60
2022/11/07 03:53:39;;;;;;;74.15;26.00;;;;;;;;;;6343282;28;20054;-59
2022/11/07 03:56:39;;;;;;;80.22;25.85;;;;;;;;;;6344672;28;20052;-60
2022/11/07 03:59:40;;;;;;;79.65;28.55;;;;;;;;;;6344388;28;20055;-61
2022/11/07 04:02:41;;;;;;;77.43;27.70;;;;;;;;;;6342712;28;20044;-60
2022/11/07 04:05:42;;;;;;;89.65;32.30;;;;;;;;;;6344619;28;20067;-60
2022/11/07 04:08:44;;;;;;;83.00;28.58;;;;;;;;;;6344106;28;20036;-61
2022/11/07 04:18:23;;;;;;;86.65;29.90;;;;;;;;;;6342450;28;20054;-59
2022/11/07 04:21:24;;;;;;;101.82;38.25;;;;;;;;;;6343424;28;20035;-60
2022/11/07 04:24:24;;;;;;;102.40;36.92;;;;;;;;;;6341794;28;20047;-60
2022/11/07 04:27:43;;;;;;;109.63;38.58;;;;;;;;;;6343406;28;20043;-61
2022/11/07 04:30:44;;;;;;;121.10;40.97;;;;;;;;;;6343730;28;20049;-60
2022/11/07 04:33:44;;;;;;;125.13;50.42;;;;;;;;;;6341851;28;20113;-61
2022/11/07 04:36:45;;;;;;;106.65;38.75;;;;;;;;;;6342268;28;20051;-60
2022/11/07 04:39:45;;;;;;;110.80;39.10;;;;;;;;;;6342797;28;20046;-60
2022/11/07 04:42:47;;;;;;;106.80;38.30;;;;;;;;;;6342776;28;20054;-60
2022/11/07 04:45:48;;;;;;;100.87;38.80;;;;;;;;;;6341761;28;20039;-61
2022/11/07 04:48:49;;;;;;;113.68;38.97;;;;;;;;;;6343371;28;20089;-60
2022/11/07 04:51:53;;;;;;;108.28;40.25;;;;;;;;;;6342986;28;20459;-60
2022/11/07 04:54:54;;;;;;;96.20;33.70;;;;;;;;;;6340721;28;20044;-61
2022/11/07 04:57:55;;;;;;;100.72;36.63;;;;;;;;;;6339760;28;20043;-61
2022/11/07 05:00:55;;;;;;;91.00;32.90;;;;;;;;;;6335442;28;20475;-60
2022/11/07 05:03:56;;;;;;;88.38;33.03;;;;;;;;;;6332031;28;20108;-60
2022/11/07 05:06:57;;;;;;;90.63;33.28;;;;;;;;;;6336239;28;20505;-60
2022/11/07 05:09:57;;;;;;;102.43;36.15;;;;;;;;;;6334065;28;20044;-60
2022/11/07 05:12:58;;;;;;;95.18;39.65;;;;;;;;;;6335051;28;20052;-62
2022/11/07 05:15:58;;;;;;;117.95;45.38;;;;;;;;;;6333366;28;20051;-61
2022/11/07 05:18:59;;;;;;;141.50;54.22;;;;;;;;;;6334253;28;20111;-61
2022/11/07 05:25:18;;;;;;;94.00;33.67;;;;;;;;;;6333037;28;20036;-61
2022/11/07 05:28:24;;;;;;;91.50;33.72;;;;;;;;;;6333763;28;20055;-60
2022/11/07 05:31:25;;;;;;;78.50;27.10;;;;;;;;;;6331927;28;20045;-62
2022/11/07 05:34:25;;;;;;;83.30;27.83;;;;;;;;;;6337273;28;20051;-61
2022/11/07 05:37:26;;;;;;;78.72;26.80;;;;;;;;;;6340246;28;20050;-61
2022/11/07 05:40:27;;;;;;;85.50;28.95;;;;;;;;;;6337200;28;20043;-61
2022/11/07 05:43:28;;;;;;;88.55;30.35;;;;;;;;;;6342844;28;20098;-61
2022/11/07 05:46:28;;;;;;;96.47;35.88;;;;;;;;;;6339974;28;20048;-68
2022/11/07 05:49:29;;;;;;;90.25;33.50;;;;;;;;;;6331773;28;20427;-61
2022/11/07 05:52:30;;;;;;;105.57;41.42;;;;;;;;;;6328589;28;20052;-61
2022/11/07 05:55:31;;;;;;;95.25;34.80;;;;;;;;;;6339753;28;20054;-61
2022/11/07 05:58:32;;;;;;;94.60;33.47;;;;;;;;;;6339079;28;20043;-62
2022/11/07 06:01:33;;;;;;;97.90;36.00;;;;;;;;;;6339882;28;20044;-61
2022/11/07 06:04:33;;;;;;;96.80;36.50;;;;;;;;;;6336171;28;20479;-61
2022/11/07 06:07:35;;;;;;;86.60;31.95;;;;;;;;;;6321702;28;20043;-61
2022/11/07 06:10:37;;;;;;;97.68;36.55;;;;;;;;;;6322749;28;20818;-61
2022/11/07 06:13:38;;;;;;;96.90;34.20;;;;;;;;;;6325600;28;20532;-61
2022/11/07 06:16:38;;;;;;;112.03;40.75;;;;;;;;;;6340603;28;20051;-61
2022/11/07 06:19:39;;;;;;;113.53;42.78;;;;;;;;;;6341472;28;20040;-61
2022/11/07 06:22:39;;;;;;;106.15;38.35;;;;;;;;;;6342015;28;20043;-61
2022/11/07 06:25:40;;;;;;;124.88;44.80;;;;;;;;;;6339035;28;20147;-61
2022/11/07 06:28:40;;;;;;;105.57;38.45;;;;;;;;;;6341370;28;20040;-62
2022/11/07 06:31:41;;;;;;;112.75;37.03;;;;;;;;;;6341563;28;20066;-60
2022/11/07 06:34:42;;;;;;;104.60;40.58;;;;;;;;;;6340426;28;20458;-61
2022/11/07 06:37:42;;;;;;;112.68;40.92;;;;;;;;;;6340726;28;20512;-61
2022/11/07 06:40:43;;;;;;;102.07;35.65;;;;;;;;;;6343172;28;20046;-61
2022/11/07 06:43:44;;;;;;;97.10;33.53;;;;;;;;;;6344961;28;20039;-61
2022/11/07 06:46:47;;;;;;;100.82;38.85;;;;;;;;;;6336105;28;20051;-61
2022/11/07 06:49:47;;;;;;;105.78;39.03;;;;;;;;;;6338207;28;20052;-61
2022/11/07 06:52:48;;;;;;;89.85;31.85;;;;;;;;;;6338606;28;20100;-61
2022/11/07 06:55:48;;;;;;;93.50;31.35;;;;;;;;;;6339339;28;20044;-60
2022/11/07 06:58:49;;;;;;;93.85;34.03;;;;;;;;;;6340343;28;20054;-61
2022/11/07 07:01:50;;;;;;;108.57;40.63;;;;;;;;;;6339020;28;20101;-61
2022/11/07 07:04:50;;;;;;;98.80;34.78;;;;;;;;;;6335567;28;20046;-61
2022/11/07 07:07:53;;;;;;;121.43;46.55;;;;;;;;;;6335907;28;20043;-61
2022/11/07 07:10:54;;;;;;;110.35;44.38;;;;;;;;;;6338958;28;20055;-61
2022/11/07 07:13:55;;;;;;;99.88;39.90;;;;;;;;;;6335045;28;20047;-61
2022/11/07 07:16:59;;;;;;;95.70;34.72;;;;;;;;;;6337078;28;20463;-61
2022/11/07 07:20:00;;;;;;;93.18;33.00;;;;;;;;;;6336656;28;20070;-61
2022/11/07 07:23:01;;;;;;;94.35;33.03;;;;;;;;;;6338396;28;20405;-61
2022/11/07 07:26:03;;;;;;;89.88;32.70;;;;;;;;;;6340822;28;20059;-62
2022/11/07 07:29:03;;;;;;;71.80;25.60;;;;;;;;;;6344738;28;20043;-61
2022/11/07 07:32:04;;;;;;;80.15;26.25;;;;;;;;;;6345571;28;20048;-61
2022/11/07 07:35:05;;;;;;;75.00;24.58;;;;;;;;;;6343575;28;20044;-61
2022/11/07 07:38:06;;;;;;;63.37;25.77;;;;;;;;;;6340217;28;20097;-61
2022/11/07 07:41:07;;;;;;;65.57;22.40;;;;;;;;;;6339016;28;20424;-61
2022/11/07 07:44:07;;;;;;;58.50;22.20;;;;;;;;;;6338684;28;20062;-61
2022/11/07 07:47:08;;;;;;;64.35;21.30;;;;;;;;;;6339956;28;20044;-61
2022/11/07 07:50:10;;;;;;;57.05;20.60;;;;;;;;;;6343529;28;20055;-61
2022/11/07 07:53:11;;;;;;;;;;;;;;;;;;6342646;28;20508;-61
2022/11/07 07:56:13;;;;;;;64.78;21.05;;;;;;;;;;6342242;28;19923;-61
2022/11/07 07:59:14;;;;;;;;;;;;;;;;;;6342663;28;20055;-60
2022/11/07 08:02:14;;;;;;;54.97;24.33;;;;;;;;;;6338454;28;19923;-62
2022/11/07 08:05:15;;;;;;;41.90;14.45;;;;;;;;;;6336124;28;20108;-61
2022/11/07 08:08:16;;;;;;;32.30;13.07;;;;;;;;;;6334975;28;20060;-61
2022/11/07 08:11:16;;;;;;;36.75;13.02;;;;;;;;;;6342611;28;20379;-61
2022/11/07 08:14:17;;;;;;;27.48;10.63;;;;;;;;;;6338136;28;20040;-61
2022/11/07 08:17:17;;;;;;;26.73;9.75;;;;;;;;;;6341137;28;20043;-61
2022/11/07 08:20:19;;;;;;;20.70;9.13;;;;;;;;;;6342683;28;20152;-61
2022/11/07 08:23:20;;;;;;;22.73;9.17;;;;;;;;;;6341350;28;20072;-61
2022/11/07 08:26:21;;;;;;;24.58;8.25;;;;;;;;;;6341857;28;20043;-61
2022/11/07 08:29:21;;;;;;;24.15;8.38;;;;;;;;;;6342384;28;20050;-61
2022/11/07 08:32:23;;;;;;;17.13;7.28;;;;;;;;;;6343040;28;20050;-61
2022/11/07 08:35:23;;;;;;;21.38;7.93;;;;;;;;;;6340799;28;20397;-61
2022/11/07 08:38:25;;;;;;;20.25;8.32;;;;;;;;;;6341872;28;20040;-61
2022/11/07 08:41:25;;;;;;;21.17;7.90;;;;;;;;;;6342123;28;20040;-61
2022/11/07 08:44:26;;;;;;;19.27;7.20;;;;;;;;;;6340567;28;20054;-61
2022/11/07 08:47:27;;;;;;;19.60;8.65;;;;;;;;;;6342425;28;20479;-61
2022/11/07 08:50:28;;;;;;;17.75;7.78;;;;;;;;;;6342176;28;20050;-61
2022/11/07 08:53:29;;;;;;;21.80;9.07;;;;;;;;;;6341444;28;20040;-61
2022/11/07 08:56:32;;;;;;;19.50;8.10;;;;;;;;;;6336848;28;20091;-61
2022/11/07 08:59:32;;;;;;;25.63;8.23;;;;;;;;;;6335161;28;20365;-61
2022/11/07 09:02:33;;;;;;;19.38;7.97;;;;;;;;;;6334882;28;20099;-61
2022/11/07 09:05:34;;;;;;;17.55;7.13;;;;;;;;;;6335541;28;20055;-60
2022/11/07 09:08:34;;;;;;;20.40;7.53;;;;;;;;;;6335983;28;21276;-61
2022/11/07 09:11:35;;;;;;;18.88;7.38;;;;;;;;;;6335359;28;20050;-61
2022/11/07 09:14:36;;;;;;;19.23;7.70;;;;;;;;;;6332902;28;20086;-61
2022/11/07 09:17:36;;;;;;;23.98;7.85;;;;;;;;;;6334485;28;20048;-61
2022/11/07 09:20:37;;;;;;;20.35;7.97;;;;;;;;;;6335636;28;20048;-61
2022/11/07 09:23:37;;;;;;;16.30;7.30;;;;;;;;;;6332426;28;20116;-61
2022/11/07 09:26:38;;;;;;;22.10;7.88;;;;;;;;;;6337795;28;20477;-61
2022/11/07 09:29:39;;;;;;;21.83;8.45;;;;;;;;;;6341368;28;20039;-61
2022/11/07 09:32:39;;;;;;;23.70;7.93;;;;;;;;;;6342177;28;20107;-61
2022/11/07 09:35:40;;;;;;;19.17;7.97;;;;;;;;;;6335099;28;20039;-61
2022/11/07 09:38:40;;;;;;;23.83;7.82;;;;;;;;;;6335044;28;20044;-61
2022/11/07 09:41:54;;;;;;;18.27;7.35;;;;;;;;;;6335396;28;20129;-61
2022/11/07 09:44:58;;;;;;;19.50;7.85;;;;;;;;;;6332172;28;20051;-61
2022/11/07 09:48:04;;;;;;;17.77;7.70;;;;;;;;;;6334626;28;20055;-61
2022/11/07 09:51:07;;;;;;;22.83;8.07;;;;;;;;;;6333009;28;20055;-61
2022/11/07 09:54:26;;;;;;;20.40;8.85;;;;;;;;;;6333183;28;20043;-61
2022/11/07 09:57:31;;;;;;;22.05;8.32;;;;;;;;;;6332232;28;20043;-61
2022/11/07 10:00:32;;;;;;;23.90;8.95;;;;;;;;;;6335136;28;20104;-61
2022/11/07 10:03:36;;;;;;;19.80;7.90;;;;;;;;;;6335473;28;20055;-61
2022/11/07 10:06:48;;;;;;;21.67;8.32;;;;;;;;;;6332835;28;20036;-61
2022/11/07 10:10:05;;;;;;;21.40;9.15;;;;;;;;;;6332849;28;20097;-61
2022/11/07 10:13:21;;;;;;;20.50;7.72;;;;;;;;;;6334254;28;20051;-61
2022/11/07 10:16:34;;;;;;;20.80;7.95;;;;;;;;;;6343673;28;20044;-61
2022/11/07 10:20:07;;;;;;;17.55;7.75;;;;;;;;;;6338622;28;20465;-60
2022/11/07 10:23:26;;;;;;;20.33;9.10;;;;;;;;;;6336830;28;20051;-61
2022/11/07 10:26:27;;;;;;;21.73;8.57;;;;;;;;;;6338780;28;20050;-61
2022/11/07 10:29:38;;;;;;;19.52;8.15;;;;;;;;;;6339938;28;20044;-61
2022/11/07 10:32:55;;;;;;;19.17;8.38;;;;;;;;;;6318807;28;20058;-61
2022/11/07 10:36:02;;;;;;;21.55;8.10;;;;;;;;;;6335700;28;20043;-61
2022/11/07 10:39:13;;;;;;;17.77;8.05;;;;;;;;;;6336871;28;20114;-61
2022/11/07 10:42:24;;;;;;;17.92;7.93;;;;;;;;;;6337403;28;20036;-61
2022/11/07 10:45:27;;;;;;;18.60;7.93;;;;;;;;;;6336060;28;20206;-61
2022/11/07 10:48:31;;;;;;;21.63;8.40;;;;;;;;;;6337537;28;20092;-61
2022/11/07 10:51:33;;;;;;;22.92;9.15;;;;;;;;;;6339741;28;20092;-62
2022/11/07 10:54:34;;;;;;;21.55;9.15;;;;;;;;;;6336497;28;20043;-61
2022/11/07 10:57:35;;;;;;;21.10;8.52;;;;;;;;;;6336753;28;20092;-62
2022/11/07 11:00:38;;;;;;;20.40;8.38;;;;;;;;;;6336660;28;20051;-60
2022/11/07 11:03:46;;;;;;;23.17;8.35;;;;;;;;;;6336794;28;20142;-61
2022/11/07 11:06:55;;;;;;;19.95;8.48;;;;;;;;;;6333854;28;20047;-61
2022/11/07 11:09:57;;;;;;;22.05;9.18;;;;;;;;;;6338217;28;20040;-61
2022/11/07 11:12:57;;;;;;;18.95;8.63;;;;;;;;;;6342625;28;20393;-61
2022/11/07 11:16:14;;;;;;;18.88;8.52;;;;;;;;;;6336838;28;20047;-61
2022/11/07 11:19:26;;;;;;;20.52;7.85;;;;;;;;;;6338392;28;20066;-62
2022/11/07 11:22:28;;;;;;;17.77;7.90;;;;;;;;;;6338881;28;20200;-61
2022/11/07 11:25:28;;;;;;;18.35;8.23;;;;;;;;;;6337512;28;20059;-61
2022/11/07 11:28:34;;;;;;;21.42;8.88;;;;;;;;;;6335303;28;20043;-61
2022/11/07 11:31:39;;;;;;;15.40;7.03;;;;;;;;;;6337307;28;20046;-61
2022/11/07 11:34:58;;;;;;;19.23;8.23;;;;;;;;;;6338174;28;20553;-61
2022/11/07 11:38:07;;;;;;;15.85;8.32;;;;;;;;;;6337115;28;20055;-61
2022/11/07 11:41:42;;;;;;;19.15;8.55;;;;;;;;;;6335999;28;20039;-61
2022/11/07 11:44:44;;;;;;;17.55;7.93;;;;;;;;;;6334801;28;20445;-61
2022/11/07 11:48:19;;;;;;;23.13;8.73;;;;;;;;;;6337504;28;20621;-61
2022/11/07 11:51:37;;;;;;;17.38;8.13;;;;;;;;;;6336795;28;20083;-61
2022/11/07 11:54:38;;;;;;;20.65;8.07;;;;;;;;;;6333255;28;20460;-61
2022/11/07 11:57:57;;;;;;;21.30;8.75;;;;;;;;;;6337964;28;20047;-61
2022/11/07 12:01:13;;;;;;;22.48;8.40;;;;;;;;;;6337009;28;20522;-60
2022/11/07 12:04:44;;;;;;;20.30;8.90;;;;;;;;;;6336138;28;20040;-61
2022/11/07 12:07:57;;;;;;;20.17;8.48;;;;;;;;;;6334360;28;20048;-61
2022/11/07 12:11:23;;;;;;;19.48;8.48;;;;;;;;;;6340608;28;20058;-60
2022/11/07 12:14:36;;;;;;;20.88;8.07;;;;;;;;;;6327514;28;21554;-61
2022/11/07 12:17:56;;;;;;;22.33;8.52;;;;;;;;;;6337527;28;20533;-60
2022/11/07 12:21:10;;;;;;;18.52;8.13;;;;;;;;;;6334424;28;20047;-61
2022/11/07 12:24:43;;;;;;;21.63;8.00;;;;;;;;;;6334810;28;20046;-61
2022/11/07 12:27:54;;;;;;;17.73;7.82;;;;;;;;;;6335641;28;20065;-61
2022/11/07 12:31:06;;;;;;;17.67;7.93;;;;;;;;;;6336957;28;20055;-61
2022/11/07 12:34:21;;;;;;;22.80;8.50;;;;;;;;;;6334541;28;20036;-61
2022/11/07 12:37:51;;;;;;;18.00;7.63;;;;;;;;;;6333010;28;20048;-61
2022/11/07 12:41:23;;;;;;;17.55;8.55;;;;;;;;;;6334401;28;20510;-61
2022/11/07 12:44:33;;;;;;;;;;;;;;;;;;6339288;28;20044;-61
2022/11/07 12:47:58;;;;;;;19.42;8.00;;;;;;;;;;6341164;28;19920;-61
2022/11/07 12:51:19;;;;;;;19.30;7.90;;;;;;;;;;6337895;28;20105;-61
2022/11/07 12:54:40;;;;;;;17.08;8.00;;;;;;;;;;6340867;28;20044;-61
2022/11/07 12:57:41;;;;;;;20.88;7.95;;;;;;;;;;6341521;28;20050;-61
2022/11/07 13:00:43;;;;;;;19.23;8.30;;;;;;;;;;6341447;28;20035;-61
2022/11/07 13:03:44;;;;;;;21.70;8.38;;;;;;;;;;6339907;28;20050;-61
2022/11/07 13:06:53;;;;;;;20.02;8.20;;;;;;;;;;6341872;28;20048;-61
2022/11/07 13:10:07;;;;;;;17.52;8.63;;;;;;;;;;6341184;28;20035;-61
2022/11/07 13:13:53;;;;;;;17.77;7.95;;;;;;;;;;6340276;28;20051;-61
2022/11/07 13:16:56;;;;;;;19.02;8.30;;;;;;;;;;6339630;28;20046;-61
2022/11/07 13:20:03;;;;;;;18.27;7.53;;;;;;;;;;6341774;28;20048;-61
2022/11/07 13:23:14;;;;;;;18.38;8.55;;;;;;;;;;6341610;28;20107;-61
2022/11/07 13:26:26;;;;;;;19.33;8.32;;;;;;;;;;6340921;28;20053;-61
2022/11/07 13:29:33;;;;;;;18.95;8.30;;;;;;;;;;6340097;28;20130;-61
2022/11/07 13:32:38;;;;;;;17.70;7.82;;;;;;;;;;6341803;28;20040;-61
2022/11/07 13:35:39;;;;;;;19.77;7.43;;;;;;;;;;6339470;28;20043;-61
2022/11/07 13:38:47;;;;;;;16.55;8.07;;;;;;;;;;6339695;28;20054;-61
2022/11/07 13:41:48;;;;;;;21.13;8.63;;;;;;;;;;6341191;28;20065;-61
2022/11/07 13:44:52;;;;;;;14.57;7.85;;;;;;;;;;6341205;28;20043;-61
2022/11/07 13:47:56;;;;;;;18.27;7.18;;;;;;;;;;6340969;28;20054;-61
2022/11/07 13:51:10;;;;;;;16.13;7.68;;;;;;;;;;6341537;28;20140;-61
2022/11/07 13:54:33;;;;;;;18.70;6.80;;;;;;;;;;6344445;28;20696;-61
2022/11/07 13:57:39;;;;;;;18.05;7.03;;;;;;;;;;6346285;28;20088;-62
2022/11/07 14:00:40;;;;;;;22.23;7.63;;;;;;;;;;6343042;28;20061;-62
2022/11/07 14:03:40;;;;;;;18.90;6.85;;;;;;;;;;6345021;28;20411;-61
2022/11/07 14:06:42;;;;;;;15.35;6.40;;;;;;;;;;6346709;28;20657;-62
2022/11/07 14:09:43;;;;;;;14.80;6.33;;;;;;;;;;6345419;28;20054;-62
2022/11/07 14:12:44;;;;;;;15.38;7.50;;;;;;;;;;6340576;28;20378;-61
2022/11/07 14:15:52;;;;;;;15.50;6.50;;;;;;;;;;6340323;28;20047;-61
2022/11/07 14:18:58;;;;;;;16.75;6.72;;;;;;;;;;6339823;28;20050;-62
2022/11/07 14:21:59;;;;;;;16.60;7.18;;;;;;;;;;6337818;28;20057;-62
2022/11/07 14:25:00;;;;;;;18.35;7.22;;;;;;;;;;6343038;28;20043;-61
2022/11/07 14:28:01;;;;;;;14.13;6.27;;;;;;;;;;6345437;28;20143;-61
2022/11/07 14:31:05;;;;;;;17.05;6.55;;;;;;;;;;6344344;28;20319;-61
2022/11/07 14:34:21;;;;;;;19.75;6.43;;;;;;;;;;6344128;28;20082;-61
2022/11/07 14:37:24;;;;;;;19.88;6.65;;;;;;;;;;6340238;28;20044;-61
2022/11/07 14:40:25;;;;;;;17.58;7.18;;;;;;;;;;6338530;28;20065;-61
2022/11/07 14:43:28;;;;;;;15.98;7.50;;;;;;;;;;6337654;28;20043;-62
2022/11/07 14:46:28;;;;;;;16.27;6.40;;;;;;;;;;6336174;28;20043;-61
2022/11/07 14:49:44;;;;;;;17.75;6.72;;;;;;;;;;6336147;28;20476;-61
2022/11/07 14:52:58;;;;;;;19.15;7.55;;;;;;;;;;6338069;28;20036;-62
2022/11/07 14:56:06;;;;;;;16.42;7.30;;;;;;;;;;6337242;28;20119;-61
2022/11/07 14:59:11;;;;;;;23.50;7.85;;;;;;;;;;6333651;28;20044;-62
2022/11/07 15:02:12;;;;;;;17.98;7.88;;;;;;;;;;6337440;28;20039;-61
2022/11/07 15:05:25;;;;;;;17.25;7.72;;;;;;;;;;6313931;28;20044;-60
2022/11/07 15:08:34;;;;;;;21.25;11.55;;;;;;;;;;6317662;28;20359;-60
2022/11/07 15:11:37;;;;;;;21.52;8.45;;;;;;;;;;6320017;28;20040;-61
2022/11/07 15:14:38;;;;;;;29.85;14.70;;;;;;;;;;6317824;28;20495;-60
2022/11/07 15:17:50;;;;;;;29.20;16.02;;;;;;;;;;6316904;28;20051;-60
2022/11/07 15:20:59;;;;;;;22.80;11.38;;;;;;;;;;6316716;28;20044;-60
2022/11/07 15:24:20;;;;;;;39.80;22.10;;;;;;;;;;6314587;28;20519;-61
2022/11/07 15:27:31;;;;;;;30.50;16.33;;;;;;;;;;6316577;28;20383;-61
2022/11/07 15:30:33;;;;;;;24.67;10.18;;;;;;;;;;6316846;28;20496;-60
2022/11/07 15:33:33;;;;;;;26.67;12.63;;;;;;;;;;6314629;28;20333;-60
2022/11/07 15:36:34;;;;;;;27.05;11.38;;;;;;;;;;6318969;28;20054;-60
2022/11/07 15:39:35;;;;;;;25.00;10.60;;;;;;;;;;6315374;28;20143;-60
2022/11/07 15:42:35;;;;;;;23.45;12.45;;;;;;;;;;6316758;28;20073;-60
2022/11/07 15:45:36;;;;;;;19.25;9.52;;;;;;;;;;6317133;28;20087;-60
2022/11/07 15:48:37;;;;;;;17.50;8.98;;;;;;;;;;6314980;28;20056;-60
2022/11/07 15:51:37;;;;;;;16.27;8.25;;;;;;;;;;6317282;28;21407;-60
2022/11/07 15:54:38;;;;;;;23.08;9.00;;;;;;;;;;6314676;28;20055;-60
2022/11/07 15:57:39;;;;;;;26.80;10.43;;;;;;;;;;6315021;28;20044;-59
2022/11/07 16:00:40;;;;;;;24.90;12.48;;;;;;;;;;6313405;28;20241;-60
2022/11/07 16:03:41;;;;;;;26.13;12.88;;;;;;;;;;6313140;28;20785;-59
2022/11/07 16:06:42;;;;;;;30.10;16.95;;;;;;;;;;6315599;28;20073;-61
2022/11/07 16:09:44;;;;;;;26.77;11.77;;;;;;;;;;6317373;28;20048;-62
2022/11/07 16:12:45;;;;;;;26.10;13.70;;;;;;;;;;6314359;28;20288;-62
2022/11/07 16:15:58;;;;;;;27.52;14.48;;;;;;;;;;6319864;28;20051;-61
2022/11/07 16:18:59;;;;;;;28.92;13.57;;;;;;;;;;6318559;28;20051;-61
2022/11/07 16:21:59;;;;;;;32.67;16.55;;;;;;;;;;6296417;28;20133;-61
2022/11/07 16:25:00;;;;;;;20.92;10.68;;;;;;;;;;6309640;28;20058;-61
2022/11/07 16:28:02;;;;;;;24.20;11.25;;;;;;;;;;6314748;28;20058;-61
2022/11/07 16:31:02;;;;;;;42.60;20.48;;;;;;;;;;6314664;28;20056;-61
2022/11/07 16:34:11;;;;;;;47.75;21.00;;;;;;;;;;6274919;28;21169;-61
2022/11/07 16:37:12;;;;;;;49.30;21.38;;;;;;;;;;6275220;28;20049;-60
2022/11/07 16:40:18;;;;;;;33.85;16.77;;;;;;;;;;6276581;28;20053;-60
2022/11/07 16:43:19;;;;;;;23.08;11.20;;;;;;;;;;6275306;28;20843;-60
2022/11/07 16:46:22;;;;;;;20.30;9.95;;;;;;;;;;6277964;28;20057;-60
2022/11/07 16:49:30;;;;;;;31.42;13.13;;;;;;;;;;6275431;28;20055;-60
2022/11/07 16:52:30;;;;;;;28.08;11.90;;;;;;;;;;6274593;28;20056;-60
2022/11/07 16:55:31;;;;;;;31.50;13.68;;;;;;;;;;6276699;28;20983;-60
2022/11/07 16:58:33;;;;;;;32.38;12.57;;;;;;;;;;6276053;28;20094;-60
2022/11/07 17:01:35;;;;;;;;;;;;;;;;;;6270035;28;20130;-60
2022/11/07 17:04:35;;;;;;;29.42;12.75;;;;;;;;;;6273857;28;20260;-61
2022/11/07 17:07:36;;;;;;;28.45;12.30;;;;;;;;;;6275545;28;20123;-61
2022/11/07 17:10:37;;;;;;;27.38;12.73;;;;;;;;;;6274911;28;20052;-60
2022/11/07 17:13:37;;;;;;;27.52;12.30;;;;;;;;;;6272801;28;20480;-60
2022/11/07 17:16:42;;;;;;;25.75;11.05;;;;;;;;;;6277424;28;20044;-60
2022/11/07 17:19:43;;;;;;;28.00;13.15;;;;;;;;;;6275935;28;20082;-61
2022/11/07 17:22:43;;;;;;;36.58;14.98;;;;;;;;;;6272615;28;20130;-63
2022/11/07 17:25:53;;;;;;;27.10;12.52;;;;;;;;;;6276767;28;20179;-62
2022/11/07 17:28:55;;;;;;;30.40;13.70;;;;;;;;;;6274947;28;20803;-62
2022/11/07 17:31:56;;;;;;;37.20;18.10;;;;;;;;;;6275527;28;21412;-62
2022/11/07 17:34:56;;;;;;;35.55;15.93;;;;;;;;;;6273094;28;20052;-62
2022/11/07 17:37:57;;;;;;;32.30;14.98;;;;;;;;;;6276049;28;20069;-62
2022/11/07 17:41:15;;;;;;;37.85;18.27;;;;;;;;;;6275112;28;20045;-62
2022/11/07 17:44:17;;;;;;;41.22;20.33;;;;;;;;;;6262743;28;20578;-62
2022/11/07 17:47:29;;;;;;;37.40;19.98;;;;;;;;;;6258045;28;20060;-62
2022/11/07 17:50:29;;;;;;;;;;;;;;;;;;6258177;28;20495;-62
2022/11/07 17:53:31;;;;;;;38.33;16.33;;;;;;;;;;6256497;28;20070;-63
2022/11/07 17:56:33;;;;;;;48.13;22.67;;;;;;;;;;6258772;28;20049;-63
2022/11/07 17:59:33;;;;;;;50.13;24.40;;;;;;;;;;6258411;28;20523;-62
2022/11/07 18:02:34;;;;;;;41.10;20.17;;;;;;;;;;6257723;28;20063;-62
2022/11/07 18:05:34;;;;;;;37.95;16.75;;;;;;;;;;6258303;28;20068;-62
2022/11/07 18:08:37;;;;;;;46.40;20.83;;;;;;;;;;6259169;28;20045;-62
2022/11/07 18:11:38;;;;;;;44.28;19.77;;;;;;;;;;6259443;28;20794;-62
2022/11/07 18:14:39;;;;;;;84.18;31.15;;;;;;;;;;6253997;28;20112;-62